Metar z pełnej godziny Komunikat METAR ze strony awiacja.imgw.pl Metar G00 EPBY METAR EPBY 231300Z 26011KT 200V290 9999 SCT044 23/12 Q1008 =